Time;durP1;ratioP1;P1;durP2;ratioP2;P2;SDS_P1;SDS_P2;PMS_P1;PMS_P2;Temp;Humidity;BMP_temperature;BMP_pressure;BME280_temperature;BME280_humidity;BME280_pressure;Samples;Min_cycle;Max_cycle;Signal;HPM_P1;HPM_P2
2021/11/05 00:01:29;;;;;;;27.73;11.60;;;7.30;97.30;;;;;;5015901;28;20223;-80
2021/11/05 00:03:54;;;;;;;27.83;11.43;;;7.30;97.30;;;;;;5015843;28;20690;-81
2021/11/05 00:06:20;;;;;;;26.23;11.43;;;7.30;97.30;;;;;;5015363;28;20201;-80
2021/11/05 00:08:45;;;;;;;32.70;12.40;;;7.20;97.30;;;;;;5018488;28;20207;-80
2021/11/05 00:11:11;;;;;;;29.27;11.50;;;7.20;97.30;;;;;;5034544;28;20183;-81
2021/11/05 00:13:36;;;;;;;27.37;10.67;;;7.30;97.30;;;;;;5033986;28;20180;-80
2021/11/05 00:16:02;;;;;;;24.50;9.97;;;7.30;97.30;;;;;;5035695;28;20694;-80
2021/11/05 00:18:27;;;;;;;28.40;10.23;;;7.30;97.30;;;;;;5035231;28;20258;-82
2021/11/05 00:20:53;;;;;;;24.37;10.30;;;7.30;97.30;;;;;;5020159;28;20185;-80
2021/11/05 00:23:18;;;;;;;27.30;10.33;;;7.30;97.30;;;;;;5014408;28;20209;-80
2021/11/05 00:25:44;;;;;;;24.60;9.57;;;7.30;97.30;;;;;;5013461;28;20208;-81
2021/11/05 00:28:10;;;;;;;24.20;9.93;;;7.30;97.30;;;;;;5013222;28;20224;-81
2021/11/05 00:30:36;;;;;;;18.37;8.20;;;7.30;97.30;;;;;;5029010;28;20415;-79
2021/11/05 00:33:02;;;;;;;25.30;11.27;;;7.30;97.30;;;;;;5032738;28;20195;-79
2021/11/05 00:35:27;;;;;;;18.87;8.07;;;7.30;97.30;;;;;;5032970;28;20197;-79
2021/11/05 00:37:53;;;;;;;30.00;10.60;;;7.30;97.30;;;;;;5033200;28;20427;-82
2021/11/05 00:40:19;;;;;;;27.57;11.30;;;7.30;97.30;;;;;;5034653;28;20238;-79
2021/11/05 00:42:44;;;;;;;26.50;10.00;;;7.30;97.30;;;;;;5035385;28;20555;-80
2021/11/05 00:45:10;;;;;;;21.40;9.30;;;7.30;97.30;;;;;;5034809;28;21325;-80
2021/11/05 00:47:36;;;;;;;20.63;9.20;;;7.40;97.30;;;;;;5033931;28;20635;-80
2021/11/05 00:50:03;;;;;;;22.73;9.20;;;7.40;97.30;;;;;;5021413;28;20420;-79
2021/11/05 00:52:29;;;;;;;23.50;9.70;;;7.40;97.30;;;;;;5014124;28;20409;-79
2021/11/05 00:54:54;;;;;;;26.07;11.47;;;7.40;97.30;;;;;;5013439;28;20422;-81
2021/11/05 00:57:20;;;;;;;22.73;9.60;;;7.30;97.30;;;;;;5013584;28;20743;-80
2021/11/05 00:59:45;;;;;;;26.77;9.67;;;7.30;97.30;;;;;;5018668;28;20264;-79
2021/11/05 01:02:12;;;;;;;31.70;11.07;;;7.30;97.30;;;;;;5034376;28;20180;-80
2021/11/05 01:04:37;;;;;;;25.37;9.80;;;7.30;97.30;;;;;;5033894;28;20639;-80
2021/11/05 01:07:03;;;;;;;24.57;9.43;;;7.30;97.30;;;;;;5033971;28;20485;-80
2021/11/05 01:09:29;;;;;;;21.53;10.17;;;7.30;97.30;;;;;;5032763;28;20169;-79
2021/11/05 01:11:54;;;;;;;27.07;9.30;;;7.30;97.30;;;;;;5034066;28;20172;-80
2021/11/05 01:14:20;;;;;;;24.20;10.10;;;7.30;97.30;;;;;;5033094;28;20427;-79
2021/11/05 01:16:45;;;;;;;25.73;9.93;;;7.30;97.30;;;;;;5032739;28;20308;-80
2021/11/05 01:19:11;;;;;;;29.17;11.07;;;7.30;97.30;;;;;;5030047;28;20173;-79
2021/11/05 01:21:37;;;;;;;28.00;10.43;;;7.30;97.30;;;;;;5015494;28;20192;-78
2021/11/05 01:24:02;;;;;;;26.20;10.77;;;7.30;97.30;;;;;;5035175;28;20169;-80
2021/11/05 01:26:28;;;;;;;30.90;11.10;;;7.30;97.30;;;;;;5033545;28;20197;-80
2021/11/05 01:28:54;;;;;;;32.13;11.27;;;7.20;97.30;;;;;;5033875;28;20514;-80
2021/11/05 01:31:21;;;;;;;29.70;10.90;;;7.20;97.30;;;;;;5034792;28;20207;-80
2021/11/05 01:33:47;;;;;;;23.50;9.67;;;7.20;97.30;;;;;;5032563;28;20431;-80
2021/11/05 01:36:13;;;;;;;26.97;9.90;;;7.20;97.30;;;;;;5031548;28;20542;-79
2021/11/05 01:38:39;;;;;;;27.20;10.10;;;7.20;97.30;;;;;;5032557;28;20809;-79
2021/11/05 01:41:04;;;;;;;31.97;11.43;;;7.20;97.30;;;;;;5032092;28;20427;-80
2021/11/05 01:43:30;;;;;;;23.13;9.00;;;7.20;97.30;;;;;;5033149;28;20242;-80
2021/11/05 01:45:55;;;;;;;26.33;10.80;;;7.20;97.30;;;;;;5034297;28;20259;-80
2021/11/05 01:48:21;;;;;;;22.73;9.87;;;7.20;97.30;;;;;;5033082;28;20261;-79
2021/11/05 01:50:47;;;;;;;32.80;11.70;;;7.20;97.30;;;;;;5025185;28;20566;-80
2021/11/05 01:53:13;;;;;;;32.70;12.97;;;7.20;97.30;;;;;;5013450;28;20227;-80
2021/11/05 01:55:39;;;;;;;28.67;10.10;;;7.20;97.30;;;;;;5013632;28;20193;-79
2021/11/05 01:58:05;;;;;;;27.00;11.53;;;7.20;97.30;;;;;;5012074;28;20431;-80
2021/11/05 02:00:31;;;;;;;33.07;12.60;;;7.20;97.30;;;;;;5014375;28;20625;-80
2021/11/05 02:02:58;;;;;;;26.00;10.50;;;7.20;97.30;;;;;;5012123;28;20431;-79
2021/11/05 02:05:24;;;;;;;28.60;10.57;;;7.20;97.30;;;;;;5013977;28;20444;-80
2021/11/05 02:07:52;;;;;;;28.50;9.40;;;7.20;97.30;;;;;;5015748;28;20470;-80
2021/11/05 02:10:20;;;;;;;35.77;10.50;;;7.20;97.30;;;;;;5032420;28;20176;-80
2021/11/05 02:12:47;;;;;;;27.23;11.00;;;7.20;97.30;;;;;;5032776;28;20427;-80
2021/11/05 02:15:14;;;;;;;26.50;9.97;;;7.20;97.30;;;;;;5031739;28;20427;-80
2021/11/05 02:17:42;;;;;;;28.70;9.63;;;7.10;97.30;;;;;;5030173;28;20445;-79
2021/11/05 02:20:09;;;;;;;29.13;10.33;;;7.10;97.30;;;;;;5032936;28;20870;-79
2021/11/05 02:22:35;;;;;;;27.40;10.83;;;7.20;97.30;;;;;;5032430;28;20424;-79
2021/11/05 02:25:02;;;;;;;31.33;10.97;;;7.20;97.30;;;;;;5032526;28;20502;-79
2021/11/05 02:27:31;;;;;;;27.37;10.53;;;7.20;97.30;;;;;;5031454;28;20455;-79
2021/11/05 02:30:03;;;;;;;26.50;10.60;;;7.10;97.30;;;;;;5021221;28;20415;-80
2021/11/05 02:32:28;;;;;;;21.60;9.93;;;7.10;97.30;;;;;;5032479;28;20419;-79
2021/11/05 02:34:54;;;;;;;33.27;10.80;;;7.10;97.30;;;;;;5030793;28;20486;-80
2021/11/05 02:37:23;;;;;;;23.13;8.23;;;7.10;97.30;;;;;;5031079;28;20250;-78
2021/11/05 02:39:49;;;;;;;30.47;10.73;;;7.10;97.30;;;;;;5029613;28;20180;-79
2021/11/05 02:42:15;;;;;;;31.17;10.57;;;7.10;97.30;;;;;;5032293;28;20415;-79
2021/11/05 02:44:41;;;;;;;27.80;10.33;;;7.10;97.30;;;;;;5031478;28;20415;-79
2021/11/05 02:47:33;;;;;;;23.43;8.83;;;7.10;97.30;;;;;;5031811;28;20707;-80
2021/11/05 02:50:04;;;;;;;29.00;11.40;;;7.20;97.30;;;;;;5012015;28;21204;-79
2021/11/05 02:52:29;;;;;;;23.33;9.90;;;7.10;97.30;;;;;;5015723;28;20474;-79
2021/11/05 02:54:55;;;;;;;27.17;8.60;;;7.10;97.30;;;;;;5015060;28;20416;-80
2021/11/05 02:57:20;;;;;;;23.50;9.83;;;7.20;97.30;;;;;;5014550;28;20204;-81
2021/11/05 02:59:46;;;;;;;29.00;10.83;;;7.20;97.30;;;;;;5034490;28;20184;-79
2021/11/05 03:02:12;;;;;;;23.80;9.80;;;7.10;97.30;;;;;;5035948;28;20689;-80
2021/11/05 03:04:38;;;;;;;28.57;10.83;;;7.20;97.30;;;;;;5035521;28;20185;-80
2021/11/05 03:07:07;;;;;;;30.37;9.93;;;7.20;97.30;;;;;;5035658;28;20212;-79
2021/11/05 03:09:35;;;;;;;26.10;9.47;;;7.20;97.30;;;;;;5035006;28;20419;-79
2021/11/05 03:12:02;;;;;;;26.17;9.30;;;7.20;97.30;;;;;;5027198;28;20510;-79
2021/11/05 03:14:28;;;;;;;23.40;8.17;;;7.20;97.30;;;;;;5016170;28;20447;-80
2021/11/05 03:16:55;;;;;;;22.50;7.40;;;7.10;97.30;;;;;;5015008;28;20485;-79
2021/11/05 03:19:21;;;;;;;24.70;8.67;;;7.10;97.30;;;;;;5027938;28;20435;-80
2021/11/05 03:21:46;;;;;;;20.93;7.40;;;7.10;97.30;;;;;;5034336;28;20427;-80
2021/11/05 03:24:13;;;;;;;16.40;6.90;;;7.10;97.30;;;;;;5035593;28;20679;-77
2021/11/05 03:26:38;;;;;;;22.70;7.03;;;7.10;97.30;;;;;;5035181;28;20954;-80
2021/11/05 03:29:04;;;;;;;13.67;6.43;;;7.10;97.30;;;;;;5035987;28;20442;-79
2021/11/05 03:31:30;;;;;;;15.70;6.53;;;7.10;97.30;;;;;;5053289;23;20683;-83
2021/11/05 03:33:56;;;;;;;19.70;7.43;;;7.10;97.30;;;;;;5028280;28;20196;-82
2021/11/05 03:36:22;;;;;;;17.70;7.93;;;7.10;97.30;;;;;;4997935;28;20425;-83
2021/11/05 03:38:49;;;;;;;15.97;6.97;;;7.10;97.30;;;;;;5027759;28;20236;-82
2021/11/05 03:41:14;;;;;;;17.20;6.57;;;7.10;97.30;;;;;;5017298;28;20453;-83
2021/11/05 03:43:40;;;;;;;19.50;7.60;;;7.10;97.30;;;;;;5035130;28;20403;-80
2021/11/05 03:46:07;;;;;;;20.00;7.63;;;7.10;97.30;;;;;;5034394;28;20191;-82
2021/11/05 03:48:35;;;;;;;18.40;7.60;;;7.20;97.30;;;;;;5035542;28;20204;-82
2021/11/05 03:51:02;;;;;;;23.10;8.40;;;7.20;97.30;;;;;;5035530;28;20419;-81
2021/11/05 03:53:27;;;;;;;17.87;8.13;;;7.20;97.30;;;;;;5034574;28;20479;-83
2021/11/05 03:55:53;;;;;;;20.33;8.10;;;7.20;97.30;;;;;;5035177;28;20431;-83
2021/11/05 03:58:19;;;;;;;22.67;8.40;;;7.20;97.30;;;;;;5034548;28;20177;-84
2021/11/05 04:00:44;;;;;;;22.23;8.13;;;7.20;97.30;;;;;;5033376;28;20203;-83
2021/11/05 04:03:10;;;;;;;19.53;8.23;;;7.20;97.30;;;;;;5034131;28;21087;-83
2021/11/05 04:05:35;;;;;;;26.13;9.30;;;7.20;97.30;;;;;;5051112;28;20195;-83
2021/11/05 04:08:01;;;;;;;29.10;9.80;;;7.20;97.30;;;;;;5034106;28;20237;-83
2021/11/05 04:10:27;;;;;;;24.50;8.70;;;7.20;97.30;;;;;;5036587;28;20177;-83
2021/11/05 04:12:52;;;;;;;27.07;10.43;;;7.20;97.30;;;;;;5036308;28;20443;-83
2021/11/05 04:15:18;;;;;;;20.47;8.23;;;7.20;97.30;;;;;;5036723;28;20227;-85
2021/11/05 04:17:43;;;;;;;19.87;8.30;;;7.20;97.30;;;;;;5016827;28;20235;-83
2021/11/05 04:20:10;;;;;;;20.13;7.63;;;7.20;97.30;;;;;;5034814;28;20854;-84
2021/11/05 04:22:37;;;;;;;18.93;7.67;;;7.20;97.30;;;;;;5033547;28;20303;-82
2021/11/05 04:25:03;;;;;;;15.40;8.00;;;7.20;97.30;;;;;;5033994;28;20449;-84
2021/11/05 04:27:29;;;;;;;23.03;7.63;;;7.20;97.30;;;;;;5034808;28;20465;-83
2021/11/05 04:29:54;;;;;;;19.27;8.00;;;7.20;97.30;;;;;;5022779;28;20424;-83
2021/11/05 04:32:20;;;;;;;16.57;6.63;;;7.20;97.30;;;;;;5014518;28;20250;-84
2021/11/05 04:34:45;;;;;;;17.37;6.93;;;7.20;97.30;;;;;;5014929;28;20185;-83
2021/11/05 04:37:11;;;;;;;12.60;6.40;;;7.20;97.30;;;;;;5030456;28;20185;-84
2021/11/05 04:39:36;;;;;;;11.13;5.33;;;7.20;97.30;;;;;;5027537;28;20184;-83
2021/11/05 04:42:03;;;;;;;9.87;5.37;;;7.20;97.30;;;;;;5033858;28;20204;-83
2021/11/05 04:44:29;;;;;;;11.33;5.40;;;7.20;97.30;;;;;;5035180;28;20181;-84
2021/11/05 04:46:55;;;;;;;8.03;4.17;;;7.10;97.30;;;;;;5035077;28;20451;-84
2021/11/05 04:49:23;;;;;;;10.27;4.20;;;7.10;97.30;;;;;;5024128;28;20455;-84
2021/11/05 04:51:51;;;;;;;8.03;4.33;;;7.10;97.30;;;;;;5014544;28;20272;-84
2021/11/05 04:54:17;;;;;;;7.00;4.30;;;7.10;97.30;;;;;;5014103;28;20428;-82
2021/11/05 04:56:44;;;;;;;14.63;3.77;;;7.10;97.30;;;;;;5014861;28;20412;-84
2021/11/05 04:59:10;;;;;;;7.97;4.17;;;7.10;97.30;;;;;;5013798;28;20413;-83
2021/11/05 05:01:35;;;;;;;6.83;3.73;;;7.10;97.30;;;;;;5030444;28;20793;-84
2021/11/05 05:04:01;;;;;;;15.20;4.80;;;7.10;97.30;;;;;;5015786;28;20268;-83
2021/11/05 05:06:26;;;;;;;8.57;3.93;;;7.10;97.30;;;;;;5015610;28;20189;-84
2021/11/05 05:08:52;;;;;;;12.20;4.60;;;7.10;97.30;;;;;;5014942;28;20208;-83
2021/11/05 05:11:17;;;;;;;10.73;4.30;;;7.10;97.30;;;;;;5014021;28;20265;-83
2021/11/05 05:13:43;;;;;;;6.63;4.03;;;7.00;97.30;;;;;;5013559;28;20224;-83
2021/11/05 05:16:09;;;;;;;8.63;4.97;;;7.00;97.30;;;;;;5011849;28;20176;-84
2021/11/05 05:18:34;;;;;;;8.30;4.30;;;7.00;97.30;;;;;;5010915;28;20176;-84
2021/11/05 05:21:00;;;;;;;10.97;4.80;;;7.00;97.30;;;;;;5012164;28;20312;-83
2021/11/05 05:23:25;;;;;;;9.00;5.07;;;7.00;97.30;;;;;;5014901;28;20300;-83
2021/11/05 05:25:51;;;;;;;10.30;4.80;;;7.00;97.30;;;;;;5014623;28;20177;-83
2021/11/05 05:28:17;;;;;;;13.03;5.50;;;7.00;97.30;;;;;;5013806;28;20263;-83
2021/11/05 05:30:43;;;;;;;13.90;5.90;;;7.00;97.30;;;;;;5013996;28;20195;-83
2021/11/05 05:33:08;;;;;;;12.67;6.37;;;7.00;97.30;;;;;;5030081;28;20232;-83
2021/11/05 05:35:34;;;;;;;13.77;6.47;;;7.00;97.30;;;;;;5029479;28;20430;-83
2021/11/05 05:38:01;;;;;;;15.70;6.17;;;7.00;97.30;;;;;;5012395;28;20762;-84
2021/11/05 05:40:27;;;;;;;15.27;6.83;;;7.00;97.30;;;;;;5014313;28;20180;-84
2021/11/05 05:42:52;;;;;;;16.83;6.87;;;7.00;97.30;;;;;;5010996;28;20440;-82
2021/11/05 05:45:20;;;;;;;13.40;5.90;;;7.10;97.30;;;;;;5010905;28;20426;-82
2021/11/05 05:47:46;;;;;;;12.87;6.13;;;7.00;97.30;;;;;;5010288;28;20290;-82
2021/11/05 05:50:15;;;;;;;15.67;6.47;;;7.10;97.30;;;;;;5015003;28;20515;-81
2021/11/05 05:52:41;;;;;;;14.80;6.60;;;7.10;97.30;;;;;;5015895;28;20199;-83
2021/11/05 05:55:08;;;;;;;16.00;6.73;;;7.10;97.30;;;;;;5012487;28;20424;-83
2021/11/05 05:57:34;;;;;;;14.80;6.97;;;7.10;97.30;;;;;;5010697;28;20500;-83
2021/11/05 05:59:59;;;;;;;17.33;7.00;;;7.10;97.30;;;;;;5012111;28;20570;-84
2021/11/05 06:02:28;;;;;;;14.00;6.67;;;7.00;97.30;;;;;;5009548;28;20659;-82
2021/11/05 06:04:54;;;;;;;17.77;6.73;;;7.10;97.30;;;;;;5012061;28;20227;-83
2021/11/05 06:07:20;;;;;;;18.30;9.27;;;7.10;97.30;;;;;;5016658;28;20547;-83
2021/11/05 06:09:47;;;;;;;17.17;7.00;;;7.00;97.30;;;;;;5029980;28;20513;-83
2021/11/05 06:12:13;;;;;;;24.30;8.00;;;7.10;97.30;;;;;;5013808;28;20742;-84
2021/11/05 06:14:39;;;;;;;17.23;6.83;;;7.10;97.30;;;;;;5022111;28;20416;-84
2021/11/05 06:17:05;;;;;;;16.83;7.23;;;7.10;97.30;;;;;;5013270;28;20195;-84
2021/11/05 06:19:31;;;;;;;20.67;8.33;;;7.10;97.30;;;;;;5012380;28;20419;-82
2021/11/05 06:21:57;;;;;;;17.33;7.23;;;7.10;97.30;;;;;;5012064;28;20216;-83
2021/11/05 06:24:22;;;;;;;21.30;8.27;;;7.10;97.30;;;;;;5013770;28;20412;-83
2021/11/05 06:26:49;;;;;;;17.07;7.00;;;7.10;97.30;;;;;;5014582;28;20180;-83
2021/11/05 06:29:15;;;;;;;16.17;7.20;;;7.10;97.30;;;;;;5014823;28;20203;-83
2021/11/05 06:31:41;;;;;;;17.03;7.30;;;7.10;97.30;;;;;;5013934;28;20464;-83
2021/11/05 06:34:07;;;;;;;17.60;7.60;;;7.10;97.30;;;;;;5014487;28;20223;-83
2021/11/05 06:36:33;;;;;;;19.20;7.80;;;7.10;97.30;;;;;;5029313;28;20447;-83
2021/11/05 06:38:59;;;;;;;15.97;7.50;;;7.10;97.30;;;;;;5012601;28;20177;-83
2021/11/05 06:41:26;;;;;;;21.63;7.87;;;7.10;97.30;;;;;;5032432;28;20957;-83
2021/11/05 06:43:52;;;;;;;13.57;6.87;;;7.10;97.30;;;;;;5033553;28;20415;-82
2021/11/05 06:46:18;;;;;;;16.77;6.77;;;7.10;97.30;;;;;;5033899;28;20494;-84
2021/11/05 06:48:44;;;;;;;22.60;8.27;;;7.10;97.30;;;;;;5033307;28;20554;-83
2021/11/05 06:51:09;;;;;;;16.20;6.87;;;7.10;97.30;;;;;;5034793;28;20172;-82
2021/11/05 06:53:35;;;;;;;20.13;8.60;;;7.10;97.30;;;;;;5032577;28;20256;-83
2021/11/05 06:56:01;;;;;;;19.57;7.93;;;7.10;97.30;;;;;;5033817;28;20173;-83
2021/11/05 06:58:29;;;;;;;15.97;6.93;;;7.10;97.30;;;;;;5032647;28;20650;-83
2021/11/05 07:00:55;;;;;;;19.67;7.67;;;7.10;97.30;;;;;;5049616;28;20415;-80
2021/11/05 07:03:21;;;;;;;22.20;7.23;;;7.10;97.30;;;;;;5034377;28;20433;-81
2021/11/05 07:05:46;;;;;;;18.27;7.60;;;7.10;97.30;;;;;;5035315;28;20415;-82
2021/11/05 07:08:12;;;;;;;19.50;7.13;;;7.10;97.30;;;;;;5035030;28;20235;-83
2021/11/05 07:10:37;;;;;;;18.20;7.17;;;7.10;97.30;;;;;;5020882;28;20173;-82
2021/11/05 07:13:03;;;;;;;19.60;7.20;;;7.10;97.30;;;;;;5028714;28;20297;-84
2021/11/05 07:15:28;;;;;;;19.30;7.70;;;7.10;97.30;;;;;;5013310;28;20177;-83
2021/11/05 07:17:54;;;;;;;20.97;8.03;;;7.20;97.30;;;;;;5012654;28;20296;-83
2021/11/05 07:20:20;;;;;;;16.47;6.70;;;7.20;97.30;;;;;;5011287;28;20181;-82
2021/11/05 07:22:46;;;;;;;15.53;5.77;;;7.20;97.30;;;;;;5013711;28;20688;-84
2021/11/05 07:25:13;;;;;;;20.67;7.93;;;7.20;97.30;;;;;;5013598;28;20503;-83
2021/11/05 07:27:40;;;;;;;17.10;6.97;;;7.20;97.30;;;;;;5013893;28;20514;-83
2021/11/05 07:30:09;;;;;;;22.93;9.63;;;7.20;97.30;;;;;;5012623;28;20420;-83
2021/11/05 07:32:36;;;;;;;17.77;7.60;;;7.20;97.30;;;;;;5012431;28;20688;-83
2021/11/05 07:35:03;;;;;;;18.03;7.13;;;7.20;97.30;;;;;;5030031;28;20412;-84
2021/11/05 07:37:29;;;;;;;17.43;6.57;;;7.20;97.30;;;;;;5013508;28;20439;-83
2021/11/05 07:39:55;;;;;;;20.07;6.93;;;7.20;97.30;;;;;;5030510;28;20412;-84
2021/11/05 07:42:22;;;;;;;16.73;6.60;;;7.20;97.30;;;;;;5014431;28;21053;-84
2021/11/05 07:44:48;;;;;;;18.17;6.80;;;7.20;97.30;;;;;;5013722;28;20674;-84
2021/11/05 07:47:14;;;;;;;14.87;6.27;;;7.20;97.30;;;;;;5016261;28;20989;-84
2021/11/05 07:49:40;;;;;;;19.63;7.47;;;7.20;97.30;;;;;;5014583;28;20423;-84
2021/11/05 07:52:06;;;;;;;18.03;7.77;;;7.20;97.30;;;;;;5013462;28;20189;-84
2021/11/05 07:54:32;;;;;;;21.70;7.97;;;7.20;97.30;;;;;;5014413;28;20414;-84
2021/11/05 07:56:57;;;;;;;16.67;6.93;;;7.20;97.30;;;;;;5014578;28;20181;-84
2021/11/05 07:59:23;;;;;;;19.23;7.03;;;7.30;97.30;;;;;;5015843;28;20177;-84
2021/11/05 08:01:48;;;;;;;17.63;7.23;;;7.30;97.30;;;;;;5015066;28;20228;-83
2021/11/05 08:04:14;;;;;;;18.03;7.03;;;7.30;97.30;;;;;;5015173;28;20209;-84
2021/11/05 08:06:39;;;;;;;18.20;8.27;;;7.30;97.30;;;;;;5015507;28;20592;-84
2021/11/05 08:09:05;;;;;;;16.87;7.40;;;7.30;97.30;;;;;;5014656;28;20642;-84
2021/11/05 08:11:32;;;;;;;20.67;9.10;;;7.30;97.30;;;;;;5014019;28;20236;-84
2021/11/05 08:13:59;;;;;;;17.87;6.90;;;7.20;97.30;;;;;;5013711;28;20702;-84
2021/11/05 08:16:25;;;;;;;22.30;8.87;;;7.30;97.30;;;;;;5014179;28;20466;-84
2021/11/05 08:18:52;;;;;;;22.57;7.67;;;7.30;97.30;;;;;;5016257;28;20495;-84
2021/11/05 08:21:18;;;;;;;16.50;7.10;;;7.30;97.30;;;;;;5014802;28;20444;-84
2021/11/05 08:23:44;;;;;;;15.73;8.00;;;7.30;97.30;;;;;;5016306;28;20455;-84
2021/11/05 08:26:11;;;;;;;16.53;7.33;;;7.30;97.30;;;;;;5013212;28;20449;-85
2021/11/05 08:28:41;;;;;;;21.30;8.30;;;7.30;97.30;;;;;;5016780;28;21001;-84
2021/11/05 08:31:12;;;;;;;21.03;7.70;;;7.30;97.30;;;;;;5013717;28;20629;-84
2021/11/05 08:33:39;;;;;;;17.67;8.20;;;7.30;97.30;;;;;;5013978;28;20416;-84
2021/11/05 08:36:06;;;;;;;20.43;7.63;;;7.30;97.30;;;;;;5013804;28;20424;-84
2021/11/05 08:38:33;;;;;;;18.33;7.50;;;7.30;97.30;;;;;;5030077;28;20422;-84
2021/11/05 08:40:59;;;;;;;20.70;8.73;;;7.30;97.30;;;;;;5015142;28;20691;-83
2021/11/05 08:43:30;;;;;;;19.60;6.60;;;7.30;97.30;;;;;;5014999;28;20416;-84
2021/11/05 08:45:57;;;;;;;16.50;6.57;;;7.30;97.30;;;;;;5014139;28;20595;-84
2021/11/05 08:48:23;;;;;;;17.70;7.20;;;7.30;97.30;;;;;;5030368;28;20475;-83
2021/11/05 08:50:49;;;;;;;16.27;6.37;;;7.30;97.30;;;;;;5013985;28;20431;-84
2021/11/05 08:53:17;;;;;;;11.57;6.20;;;7.30;97.30;;;;;;5013259;28;20197;-84
2021/11/05 08:55:43;;;;;;;20.63;6.87;;;7.40;97.30;;;;;;5013509;28;20558;-84
2021/11/05 08:58:09;;;;;;;17.27;6.70;;;7.30;97.30;;;;;;5015622;28;20497;-84
2021/11/05 09:00:35;;;;;;;16.70;7.10;;;7.40;97.30;;;;;;5016218;28;20185;-85
2021/11/05 09:03:03;;;;;;;14.17;5.80;;;7.40;97.30;;;;;;5015793;28;20452;-84
2021/11/05 09:05:28;;;;;;;12.47;5.80;;;7.40;97.30;;;;;;5032688;28;20424;-84
2021/11/05 09:07:54;;;;;;;16.37;6.37;;;7.40;97.30;;;;;;5016080;28;20460;-84
2021/11/05 09:10:20;;;;;;;14.00;6.50;;;7.40;97.30;;;;;;5014856;28;20184;-84
2021/11/05 09:12:46;;;;;;;16.47;6.63;;;7.50;97.30;;;;;;5013162;28;20251;-84
2021/11/05 09:15:15;;;;;;;12.60;5.90;;;7.40;97.30;;;;;;5012746;28;20180;-84
2021/11/05 09:17:41;;;;;;;18.43;7.60;;;7.50;97.30;;;;;;5013038;28;20192;-84
2021/11/05 09:20:09;;;;;;;15.17;7.20;;;7.50;97.30;;;;;;5015395;28;20420;-84
2021/11/05 09:22:35;;;;;;;14.20;6.07;;;7.50;97.30;;;;;;5015472;28;20450;-84
2021/11/05 09:25:01;;;;;;;17.33;6.47;;;7.50;97.30;;;;;;5015844;28;20412;-84
2021/11/05 09:27:29;;;;;;;17.40;6.90;;;7.50;97.30;;;;;;5015636;28;20986;-85
2021/11/05 09:29:55;;;;;;;14.13;6.47;;;7.60;97.30;;;;;;5015390;28;20173;-84
2021/11/05 09:32:21;;;;;;;17.30;7.40;;;7.60;97.30;;;;;;5015128;28;20487;-83
2021/11/05 09:34:47;;;;;;;17.60;6.80;;;7.70;97.30;;;;;;5031102;28;20471;-84
2021/11/05 09:37:14;;;;;;;18.30;7.80;;;7.70;97.30;;;;;;5015727;28;20436;-84
2021/11/05 09:39:39;;;;;;;16.13;6.57;;;7.70;97.30;;;;;;5014277;28;21195;-84
2021/11/05 09:42:05;;;;;;;20.73;7.30;;;7.70;97.30;;;;;;5014825;28;20436;-84
2021/11/05 09:44:31;;;;;;;14.60;6.70;;;7.70;97.30;;;;;;5015937;28;20272;-84
2021/11/05 09:47:01;;;;;;;18.33;7.23;;;7.80;97.30;;;;;;5017373;28;20203;-84
2021/11/05 09:49:27;;;;;;;15.97;6.63;;;7.90;97.30;;;;;;5015401;28;20852;-84
2021/11/05 09:51:54;;;;;;;16.30;7.10;;;7.90;97.30;;;;;;5015048;28;20535;-83
2021/11/05 09:54:20;;;;;;;23.00;8.70;;;7.90;97.30;;;;;;5014852;28;20428;-84
2021/11/05 09:56:47;;;;;;;23.87;8.03;;;8.00;97.30;;;;;;5014653;28;20420;-84
2021/11/05 09:59:12;;;;;;;20.80;8.03;;;8.00;97.30;;;;;;5013583;28;20472;-84
2021/11/05 10:01:41;;;;;;;16.97;7.10;;;8.00;97.30;;;;;;5013897;28;20506;-82
2021/11/05 10:04:08;;;;;;;18.90;7.60;;;8.10;97.30;;;;;;5015807;28;20656;-85
2021/11/05 10:06:33;;;;;;;16.50;7.13;;;8.10;97.30;;;;;;5031725;28;20487;-84
2021/11/05 10:08:59;;;;;;;20.50;8.07;;;8.10;97.30;;;;;;5015195;28;20460;-85
2021/11/05 10:11:33;;;;;;;19.30;7.80;;;8.20;97.30;;;;;;5031338;28;20664;-84
2021/11/05 10:14:01;;;;;;;19.50;7.73;;;8.20;97.30;;;;;;5015331;28;20168;-85
2021/11/05 10:16:29;;;;;;;22.37;9.10;;;8.20;97.30;;;;;;5012534;28;20426;-84
2021/11/05 10:19:06;;;;;;;19.00;8.67;;;8.30;97.30;;;;;;5011561;28;20420;-84
2021/11/05 10:21:46;;;;;;;18.13;8.40;;;8.30;97.30;;;;;;5011634;28;20460;-85
2021/11/05 10:24:17;;;;;;;20.60;8.10;;;8.30;97.30;;;;;;5012973;28;20416;-82
2021/11/05 10:26:43;;;;;;;18.20;7.97;;;8.30;97.30;;;;;;5031083;28;20493;-84
2021/11/05 10:29:27;;;;;;;16.67;7.37;;;8.30;97.30;;;;;;5014835;28;20998;-85
2021/11/05 10:32:01;;;;;;;21.20;8.60;;;8.30;97.30;;;;;;5014976;28;20594;-84
2021/11/05 10:34:26;;;;;;;14.83;6.30;;;8.40;97.30;;;;;;5030239;28;20930;-85
2021/11/05 10:36:52;;;;;;;19.17;7.50;;;8.40;97.30;;;;;;5013720;28;20427;-84
2021/11/05 10:39:18;;;;;;;17.47;6.90;;;8.40;97.30;;;;;;5013253;28;20176;-84
2021/11/05 10:41:43;;;;;;;11.70;6.00;;;8.50;97.30;;;;;;5013093;28;20208;-84
2021/11/05 10:44:16;;;;;;;17.40;7.07;;;8.50;97.30;;;;;;5013653;28;20181;-84
2021/11/05 10:46:43;;;;;;;12.60;6.37;;;8.40;97.30;;;;;;5030641;28;20178;-84
2021/11/05 10:49:27;;;;;;;18.83;7.27;;;8.40;97.30;;;;;;5031500;28;20505;-84
2021/11/05 10:52:19;;;;;;;15.90;7.57;;;8.50;97.30;;;;;;5015754;28;20432;-84
2021/11/05 10:54:59;;;;;;;16.27;8.07;;;8.50;97.30;;;;;;5014144;28;20408;-84
2021/11/05 10:57:42;;;;;;;15.13;6.70;;;8.50;97.30;;;;;;5030736;28;20424;-84
2021/11/05 11:00:41;;;;;;;14.63;6.23;;;8.60;97.30;;;;;;5029887;28;20416;-84
2021/11/05 11:03:25;;;;;;;18.80;6.73;;;8.50;97.30;;;;;;4997507;28;20440;-84
2021/11/05 11:05:54;;;;;;;17.63;8.33;;;8.50;97.30;;;;;;5013421;28;20420;-84
2021/11/05 11:08:25;;;;;;;17.63;7.10;;;8.50;97.30;;;;;;5014687;28;20455;-84
2021/11/05 11:10:54;;;;;;;23.30;8.33;;;8.50;97.30;;;;;;5034849;28;20479;-82
2021/11/05 11:13:36;;;;;;;19.63;8.73;;;8.60;97.30;;;;;;5018205;28;20416;-84
2021/11/05 11:16:03;;;;;;;23.27;8.10;;;8.60;97.30;;;;;;5017680;28;20408;-84
2021/11/05 11:18:29;;;;;;;19.30;8.37;;;8.60;97.30;;;;;;5017770;28;20575;-84
2021/11/05 11:20:57;;;;;;;20.83;9.40;;;8.70;97.30;;;;;;5018143;28;20470;-81
2021/11/05 11:23:23;;;;;;;24.60;9.83;;;8.70;97.30;;;;;;5016762;28;20188;-85
2021/11/05 11:25:49;;;;;;;20.87;8.90;;;8.80;97.30;;;;;;5018318;28;20413;-82
2021/11/05 11:28:17;;;;;;;25.03;10.80;;;8.80;97.30;;;;;;5015436;28;20687;-84
2021/11/05 11:30:43;;;;;;;21.33;8.80;;;8.80;97.30;;;;;;5010949;28;20412;-84
2021/11/05 11:33:09;;;;;;;21.87;8.87;;;8.80;97.30;;;;;;5017250;28;20549;-84
2021/11/05 11:35:36;;;;;;;26.17;9.60;;;8.80;97.30;;;;;;5017353;28;20181;-84
2021/11/05 11:38:02;;;;;;;22.30;9.30;;;8.90;97.30;;;;;;5011121;28;20955;-84
2021/11/05 11:40:28;;;;;;;21.63;9.17;;;8.90;97.30;;;;;;5014114;28;20420;-84
2021/11/05 11:42:55;;;;;;;23.20;10.67;;;9.00;97.30;;;;;;5016331;28;20458;-84
2021/11/05 11:45:20;;;;;;;22.63;9.07;;;9.00;97.30;;;;;;5016341;28;20212;-85
2021/11/05 11:47:48;;;;;;;17.73;9.50;;;9.10;97.30;;;;;;5016446;28;20484;-84
2021/11/05 11:50:26;;;;;;;24.30;10.07;;;9.20;97.30;;;;;;5016918;28;20192;-84
2021/11/05 11:53:09;;;;;;;24.23;9.80;;;9.20;97.30;;;;;;5017332;28;20526;-85
2021/11/05 11:55:40;;;;;;;28.73;8.90;;;9.10;97.30;;;;;;5017206;28;20921;-84
2021/11/05 11:58:13;;;;;;;22.70;9.17;;;9.10;97.30;;;;;;5033810;28;20447;-86
2021/11/05 12:00:40;;;;;;;23.57;10.30;;;9.10;97.30;;;;;;5016738;28;20420;-84
2021/11/05 12:03:09;;;;;;;26.37;11.17;;;9.00;97.30;;;;;;5016033;28;20542;-84
2021/11/05 12:05:35;;;;;;;25.03;11.00;;;9.10;97.30;;;;;;5015789;28;20507;-84
2021/11/05 12:08:35;;;;;;;22.50;10.10;;;9.10;97.30;;;;;;5016171;28;20555;-85
2021/11/05 12:11:06;;;;;;;26.83;10.07;;;9.00;97.30;;;;;;5016542;28;20231;-82
2021/11/05 12:13:35;;;;;;;30.57;12.07;;;9.10;97.30;;;;;;5016807;28;20874;-84
2021/11/05 12:16:20;;;;;;;25.67;9.87;;;9.10;97.30;;;;;;5016360;28;20463;-84
2021/11/05 12:18:57;;;;;;;29.33;11.23;;;9.20;97.30;;;;;;5016336;28;20922;-84
2021/11/05 12:21:24;;;;;;;26.43;9.60;;;9.20;97.30;;;;;;5015206;28;20985;-84
2021/11/05 12:24:11;;;;;;;23.27;9.47;;;9.30;97.30;;;;;;5016938;28;20412;-84
2021/11/05 12:26:48;;;;;;;24.50;9.20;;;9.20;97.30;;;;;;5016800;28;20424;-85
2021/11/05 12:29:32;;;;;;;26.30;8.60;;;9.30;97.30;;;;;;5014953;28;20539;-85
2021/11/05 12:31:59;;;;;;;25.63;9.07;;;9.40;97.30;;;;;;5016507;28;20452;-83
2021/11/05 12:34:32;;;;;;;20.13;8.57;;;9.40;97.30;;;;;;5017899;28;20401;-84
2021/11/05 12:36:58;;;;;;;19.17;7.80;;;9.40;97.30;;;;;;5017675;28;20764;-83
2021/11/05 12:39:33;;;;;;;18.33;7.93;;;9.50;97.30;;;;;;5015728;28;20413;-84
2021/11/05 12:42:16;;;;;;;20.13;8.57;;;9.50;97.30;;;;;;5016338;28;20837;-84
2021/11/05 12:45:01;;;;;;;15.70;7.50;;;9.50;97.30;;;;;;5015415;28;20461;-84
2021/11/05 12:47:47;;;;;;;19.80;8.03;;;9.50;97.30;;;;;;5031430;28;20448;-84